Data for 08/04/2005

Time Sea-Level Adjusted Pressure Absolute Pressure Temperature Relative Humidity Dew Point   
(mb) (inHg) (mb) (inHg) (C) (F) (%) (C) (F)
00:05 1027 30.33 856 25.28 14.6 58.3 82 11.5 52.7
00:10 1027 30.33 856 25.28 14.6 58.4 82 11.6 52.9
00:15 1027 30.33 856 25.28 14.6 58.3 81 11.5 52.6
00:20 1027 30.33 856 25.28 14.7 58.4 80 11.2 52.2
00:25 1027 30.33 856 25.28 14.7 58.5 81 11.5 52.7
00:30 1027 30.33 856 25.28 14.6 58.4 81 11.4 52.6
00:35 1027 30.33 856 25.28 14.6 58.2 81 11.4 52.5
00:40 1027 30.33 856 25.28 14.6 58.2 80 11.3 52.3
00:45 1027 30.33 856 25.28 14.6 58.3 80 11.2 52.2
00:50 1027 30.33 856 25.28 14.6 58.2 80 11.3 52.3
00:55 1027 30.33 856 25.28 14.5 58.1 80 11.2 52.1
01:00 1027 30.33 856 25.28 14.4 58 80 11.1 52
01:05 1027 30.33 856 25.28 14.6 58.2 79 11 51.9
01:10 1027 30.33 856 25.28 14.6 58.3 77 10.6 51.2
01:15 1027 30.33 856 25.28 14.7 58.5 78 10.9 51.6
01:20 1027 30.33 856 25.28 14.6 58.3 79 11 51.7
01:25 1027 30.33 856 25.28 14.6 58.3 79 11 51.7
01:30 1027 30.33 856 25.28 14.6 58.4 78 10.9 51.6
01:35 1027 30.33 856 25.28 14.6 58.2 79 10.9 51.7
01:40 1027 30.33 856 25.28 14.7 58.4 77 10.7 51.3
01:45 1027 30.33 856 25.28 14.6 58.3 78 10.9 51.6
01:50 1027 30.33 856 25.28 14.4 57.9 79 10.9 51.5
01:55 1027 30.33 856 25.28 14.4 58 78 10.7 51.3
02:00 1027 30.33 856 25.28 14.4 57.9 79 10.8 51.4
02:05 1027 30.33 856 25.28 14.2 57.5 80 10.8 51.4
02:10 1027 30.33 856 25.28 14 57.1 80 10.7 51.2
02:15 1027 30.33 856 25.28 14.1 57.4 79 10.5 50.9
02:20 1027 30.33 856 25.28 14.2 57.6 79 10.7 51.3
02:25 1027 30.33 856 25.28 14.1 57.4 80 10.6 51.2
02:30 1027 30.33 856 25.28 13.9 57 81 10.6 51.1
02:35 1027 30.33 857 25.31 13.5 56.3 82 10.4 50.8
02:40 1027 30.33 857 25.31 13.3 56 82 10.3 50.5
02:45 1027 30.33 857 25.31 13.1 55.6 82 10.1 50.3
02:50 1027 30.33 857 25.31 13 55.4 81 9.9 49.8
02:55 1027 30.33 857 25.31 13 55.3 82 9.9 49.8
03:00 1027 30.33 857 25.31 12.9 55.3 81 9.8 49.6
03:05 1027 30.33 857 25.31 13 55.5 81 9.8 49.7
03:10 1027 30.33 857 25.31 13 55.3 81 9.8 49.6
03:15 1028 30.36 857 25.31 12.9 55.2 81 9.8 49.7
03:20 1028 30.36 857 25.31 12.9 55.2 81 9.8 49.6
03:25 1028 30.36 857 25.31 12.9 55.2 81 9.7 49.5
03:30 1028 30.36 857 25.31 13 55.4 80 9.7 49.5
03:35 1028 30.36 857 25.31 13 55.4 81 9.8 49.6
03:40 1028 30.36 857 25.31 12.8 55.1 81 9.7 49.5
03:45 1028 30.36 857 25.31 12.8 55 81 9.6 49.3
03:50 1028 30.36 857 25.31 12.8 55.1 81 9.7 49.5
03:55 1028 30.36 857 25.31 12.6 54.8 82 9.7 49.4
04:00 1028 30.36 857 25.31 12.5 54.4 83 9.6 49.4
04:05 1028 30.36 857 25.31 12.2 54 83 9.5 49.2
04:10 1028 30.36 857 25.31 12.2 53.9 84 9.5 49.2
04:15 1028 30.36 857 25.31 12.2 54 84 9.6 49.3
04:20 1028 30.36 857 25.31 12.3 54.1 85 9.8 49.6
04:25 1028 30.36 857 25.31 12.2 54 86 10 50
04:30 1028 30.36 857 25.31 12.1 53.8 87 10 50
04:35 1028 30.36 857 25.31 12.1 53.7 88 10.2 50.3
04:40 1028 30.36 857 25.31 12.1 53.8 86 9.9 49.8
04:45 1028 30.36 857 25.31 12.1 53.8 86 9.9 49.8
04:50 1028 30.36 857 25.31 12.1 53.8 87 9.9 49.9
04:55 1028 30.36 857 25.31 12.1 53.8 86 9.9 49.9
05:00 1028 30.36 857 25.31 12.2 53.9 84 9.6 49.4
05:05 1028 30.36 857 25.31 12.1 53.7 84 9.4 48.9
05:10 1028 30.36 857 25.31 12 53.6 83 9.3 48.7
05:15 1028 30.36 857 25.31 11.8 53.3 84 9.2 48.6
05:20 1028 30.36 857 25.31 11.9 53.3 85 9.4 48.9
05:25 1028 30.36 857 25.31 11.7 53.1 86 9.4 49
05:30 1028 30.36 857 25.31 11.6 52.9 86 9.4 49
05:35 1028 30.36 857 25.31 11.5 52.6 88 9.5 49.1
05:40 1028 30.36 857 25.31 11.4 52.4 87 9.4 48.9
05:45 1028 30.36 857 25.31 11.2 52.2 87 9.2 48.5
05:50 1028 30.36 857 25.31 11 51.9 89 9.3 48.7
05:55 1028 30.36 857 25.31 10.9 51.7 88 9 48.1
06:00 1028 30.36 857 25.31 10.8 51.5 88 8.9 48
06:05 1028 30.36 857 25.31 11 51.8 87 8.9 48
06:10 1028 30.36 857 25.31 11 51.7 88 9.1 48.4
06:15 1028 30.36 857 25.31 11 51.8 89 9.3 48.7
06:20 1028 30.36 857 25.31 10.9 51.5 89 9.1 48.5
06:25 1028 30.36 857 25.31 10.6 51 90 8.9 48.1
06:30 1028 30.36 857 25.31 10.7 51.2 90 9 48.3
06:35 1028 30.36 857 25.31 11 51.9 88 9.2 48.5
06:40 1028 30.36 857 25.31 11.1 52 91 9.7 49.5
06:45 1028 30.36 857 25.31 11.6 52.9 91 10.2 50.3
06:50 1028 30.36 857 25.31 12.1 53.8 89 10.4 50.8
06:55 1028 30.36 857 25.31 12.3 54.1 89 10.5 50.9
07:00 1028 30.36 857 25.31 12.3 54.2 88 10.4 50.8
07:05 1028 30.36 857 25.31 12.4 54.3 88 10.5 50.9
07:10 1028 30.36 857 25.31 12.5 54.5 87 10.5 50.8
07:15 1028 30.36 857 25.31 12.7 54.8 87 10.5 50.9
07:20 1028 30.36 857 25.31 12.7 54.9 86 10.6 51
07:25 1028 30.36 857 25.31 13 55.3 85 10.6 51
07:30 1028 30.36 857 25.31 13.1 55.6 85 10.7 51.2
07:35 1028 30.36 857 25.31 13.2 55.8 84 10.6 51.1
07:40 1028 30.36 857 25.31 13.4 56.1 83 10.6 51.2
07:45 1028 30.36 857 25.31 13.4 56 84 10.7 51.2
07:50 1028 30.36 857 25.31 13.4 56.2 83 10.6 51.2
07:55 1028 30.36 857 25.31 13.6 56.5 83 10.8 51.4
08:00 1028 30.36 857 25.31 13.9 56.9 82 10.8 51.5
08:05 1028 30.36 857 25.31 13.8 56.9 82 10.9 51.6
08:10 1028 30.36 857 25.31 14 57.1 81 10.8 51.4
08:15 1028 30.36 857 25.31 14.2 57.5 79 10.7 51.3
08:20 1028 30.36 857 25.31 14.4 57.8 79 10.9 51.6
08:25 1028 30.36 857 25.31 14.6 58.2 79 11 51.8
08:30 1028 30.36 857 25.31 14.8 58.6 78 10.9 51.7
08:35 1028 30.36 857 25.31 15.1 59.1 78 11.3 52.3
08:40 1028 30.36 857 25.31 15 59 78 11.2 52.2
08:45 1028 30.36 857 25.31 15.3 59.5 76 11 51.8
08:50 1028 30.36 858 25.34 15.6 60.1 74 11.1 52
08:55 1028 30.36 857 25.31 15.8 60.5 73 11.1 52
09:00 1028 30.36 858 25.34 16.1 60.9 72 11.2 52.1
09:05 1028 30.36 858 25.34 16.4 61.5 71 11.1 52
09:10 1028 30.36 858 25.34 16.5 61.7 71 11.4 52.5
09:15 1028 30.36 858 25.34 16.8 62.2 71 11.4 52.6
09:20 1028 30.36 858 25.34 16.8 62.3 69 11.2 52.1
09:25 1028 30.36 858 25.34 17.1 62.7 67 11 51.8
09:30 1028 30.36 857 25.31 17.4 63.3 66 11.1 51.9
09:35 1028 30.36 858 25.34 17.7 63.9 65 11.1 52
09:40 1028 30.36 857 25.31 17.9 64.2 64 11.2 52.1
09:45 1028 30.36 857 25.31 18 64.3 65 11.3 52.4
09:50 1028 30.36 857 25.31 18.1 64.5 63 11 51.9
09:55 1028 30.36 857 25.31 18.3 65 63 11.2 52.1
10:00 1028 30.36 857 25.31 18.5 65.3 62 11.1 52
10:05 1028 30.36 857 25.31 18.9 65.9 59 10.7 51.2
10:10 1028 30.36 857 25.31 19 66.2 56 10.2 50.4
10:15 1028 30.36 857 25.31 19.2 66.5 57 10.7 51.2
10:20 1028 30.36 857 25.31 19.5 67.2 54 10.1 50.3
10:25 1028 30.36 857 25.31 20 67.9 52 10 50
10:30 1028 30.36 857 25.31 20 67.9 53 10.3 50.6
10:35 1028 30.36 857 25.31 20.2 68.3 50 9.5 49.1
10:40 1028 30.36 857 25.31 20.4 68.8 48 9.3 48.7
10:45 1028 30.36 857 25.31 20.7 69.2 47 9 48.3
10:50 1028 30.36 857 25.31 20.5 69 45 8.3 46.9
10:55 1028 30.36 857 25.31 20.8 69.4 45 8.4 47.1
11:00 1028 30.36 857 25.31 21.1 69.9 41 7.4 45.2
11:05 1028 30.36 857 25.31 21.2 70.2 40 7.2 44.9
11:10 1028 30.36 857 25.31 21.4 70.6 39 7 44.7
11:15 1028 30.36 857 25.31 21.5 70.8 39 7.2 45
11:20 1028 30.36 857 25.31 21.9 71.4 36 6.4 43.5
11:25 1028 30.36 857 25.31 22 71.6 37 6.8 44.2
11:30 1028 30.36 857 25.31 22.1 71.8 38 7.5 45.5
11:35 1028 30.36 857 25.31 22.1 71.8 36 6.4 43.6
11:40 1028 30.36 857 25.31 22.4 72.3 34 6 42.8
11:45 1027 30.33 857 25.31 22.6 72.7 32 5.2 41.4
11:50 1027 30.33 857 25.31 22.8 73 29 4.2 39.5
11:55 1027 30.33 857 25.31 23 73.3 29 4 39.2
12:00 1027 30.33 857 25.31 22.9 73.2 29 3.9 39.1
12:05 1027 30.33 857 25.31 23.1 73.6 28 3.6 38.5
12:10 1027 30.33 856 25.28 23.1 73.6 29 4.4 39.9
12:15 1027 30.33 856 25.28 23.3 73.9 25 2.4 36.3
12:20 1027 30.33 856 25.28 23.9 74.9 24 2.1 35.8
12:25 1027 30.33 856 25.28 23.8 74.8 23 1.9 35.5
12:30 1027 30.33 856 25.28 23.8 74.9 24 2.4 36.3
12:35 1027 30.33 856 25.28 24.2 75.6 22 1.2 34.2
12:40 1027 30.33 856 25.28 24.5 76 23 2.3 36.1
12:45 1027 30.33 856 25.28 24.6 76.2 24 2.9 37.2
12:50 1027 30.33 856 25.28 24.5 76 24 2.9 37.2
12:55 1027 30.33 856 25.28 24.8 76.6 22 2 35.6
13:00 1027 30.33 856 25.28 25.4 77.7 24 3.5 38.4
13:05 1027 30.33 856 25.28 25 77.1 24 3.2 37.7
13:10 1027 30.33 856 25.28 25.1 77.1 24 3.2 37.7
13:15 1027 30.33 856 25.28 25.5 77.8 25 4 39.2
13:20 1027 30.33 856 25.28 25.8 78.4 24 4 39.2
13:25 1027 30.33 856 25.28 25.8 78.4 26 5 41
13:30 1027 30.33 856 25.28 25.8 78.4 26 4.9 40.8
13:35 1027 30.33 856 25.28 25.2 77.4 27 5.2 41.3
13:40 1026 30.3 856 25.28 26.3 79.3 26 5.2 41.4
13:45 1026 30.3 856 25.28 26.2 79.1 25 4.6 40.3
13:50 1026 30.3 856 25.28 25.7 78.3 23 3.1 37.5
13:55 1026 30.3 856 25.28 25.8 78.5 24 3.9 38.9
14:00 1026 30.3 856 25.28 26.5 79.7 23 3.8 38.8
14:05 1026 30.3 855 25.25 26.5 79.7 22 3.5 38.4
14:10 1026 30.3 855 25.25 26.4 79.5 22 3 37.4
14:15 1026 30.3 855 25.25 26.8 80.2 26 5.9 42.6
14:20 1026 30.3 855 25.25 26.6 79.9 23 4.3 39.7
14:25 1026 30.3 855 25.25 26.7 80 24 4.5 40.1
14:30 1026 30.3 855 25.25 27.4 81.3 21 3.3 38
14:35 1026 30.3 855 25.25 27.5 81.5 21 3.5 38.3
14:40 1026 30.3 855 25.25 27.9 82.2 22 4.5 40.1
14:45 1026 30.3 855 25.25 27.7 81.9 20 3 37.4
14:50 1026 30.3 855 25.25 27.4 81.3 20 2.5 36.4
14:55 1026 30.3 855 25.25 27.6 81.6 21 3.7 38.6
15:00 1026 30.3 855 25.25 28.2 82.7 19 2.9 37.2
15:05 1026 30.3 855 25.25 28.3 82.9 20 3.7 38.6
15:10 1026 30.3 855 25.25 27.8 82.1 20 3.1 37.5
15:15 1025 30.27 855 25.25 28.3 82.9 18 2.4 36.3
15:20 1025 30.27 855 25.25 28.7 83.7 19 2.8 37.1
15:25 1025 30.27 855 25.25 28.8 83.8 19 3.3 37.9
15:30 1025 30.27 854 25.22 28.6 83.5 18 2.5 36.4
15:35 1025 30.27 854 25.22 29 84.2 18 2.6 36.6
15:40 1025 30.27 854 25.22 29.1 84.5 17 2.3 36.1
15:45 1025 30.27 854 25.22 28.8 83.9 17 2.1 35.7
15:50 1025 30.27 854 25.22 28.1 82.5 18 1.9 35.4
15:55 1025 30.27 854 25.22 28.3 83 18 2 35.5
16:00 1025 30.27 854 25.22 28.1 82.5 18 1.9 35.3
16:05 1025 30.27 854 25.22 28.5 83.3 18 2 35.5
16:10 1025 30.27 854 25.22 29.3 84.7 18 3 37.5
16:15 1025 30.27 854 25.22 29.5 85.1 16 1.4 34.6
16:20 1025 30.27 854 25.22 29.3 84.7 16 1.2 34.2
16:25 1025 30.27 854 25.22 29.5 85 15 0.8 33.5
16:30 1025 30.27 854 25.22 29.2 84.5 15 0.3 32.6
16:35 1025 30.27 854 25.22 29.2 84.6 16 0.9 33.6
16:40 1024 30.24 854 25.22 29.5 85.1 16 1.1 34
16:45 1024 30.24 854 25.22 29.9 85.9 14 -0.3 31.5
16:50 1024 30.24 854 25.22 30.1 86.2 15 0.6 33.1
16:55 1024 30.24 854 25.22 29 84.3 14 -0.6 31
17:00 1024 30.24 854 25.22 28.4 83 15 -0.6 31
17:05 1024 30.24 853 25.19 28.6 83.4 15 -0.5 31.1
17:10 1024 30.24 853 25.19 28.3 82.9 15 -0.6 30.9
17:15 1024 30.24 853 25.19 28.5 83.3 15 -0.1 31.8
17:20 1024 30.24 853 25.19 28.4 83.2 14 -1.3 29.6
17:25 1024 30.24 853 25.19 28.5 83.2 14 -1.4 29.4
17:30 1024 30.24 853 25.19 29.3 84.7 13 -1.2 29.8
17:35 1024 30.24 853 25.19 29.7 85.4 13 -1.4 29.4
17:40 1024 30.24 853 25.19 29.8 85.6 13 -1.4 29.5
17:45 1024 30.24 853 25.19 29.2 84.6 13 -1.3 29.7
17:50 1024 30.24 853 25.19 28.8 83.8 14 -1.5 29.3
17:55 1024 30.24 853 25.19 29.2 84.5 13 -1.3 29.6
18:00 1024 30.24 853 25.19 29.5 85.1 13 -1.4 29.5
18:05 1024 30.24 853 25.19 29.8 85.6 13 -1.2 29.9
18:10 1024 30.24 853 25.19 29.8 85.6 14 -0.3 31.4
18:15 1024 30.24 853 25.19 29.9 85.7 14 -0.7 30.8
18:20 1024 30.24 853 25.19 29.4 84.8 14 -0.9 30.5
18:25 1024 30.24 853 25.19 29.1 84.4 14 -0.6 30.9
18:30 1024 30.24 853 25.19 29.4 84.8 14 -0.2 31.6
18:35 1024 30.24 853 25.19 29.3 84.7 14 -0.6 30.9
18:40 1024 30.24 853 25.19 28.6 83.6 15 -0.3 31.5
18:45 1024 30.24 853 25.19 28.1 82.6 15 -0.9 30.5
18:50 1024 30.24 853 25.19 28.4 83 15 -0.7 30.8
18:55 1024 30.24 853 25.19 28.2 82.7 15 -0.7 30.7
19:00 1023 30.21 853 25.19 28.1 82.5 15 -0.5 31.2
19:05 1023 30.21 853 25.19 27.8 82 15 -0.6 31
19:10 1023 30.21 853 25.19 27.7 81.8 15 -0.7 30.8
19:15 1023 30.21 853 25.19 27.5 81.6 16 -0.5 31.1
19:20 1023 30.21 853 25.19 27.4 81.3 18 1.4 34.6
19:25 1023 30.21 853 25.19 26.8 80.2 27 6.5 43.6
19:30 1023 30.21 853 25.19 26.4 79.5 28 6.7 44.1
19:35 1023 30.21 853 25.19 26.1 79 28 6.5 43.7
19:40 1023 30.21 853 25.19 25.9 78.6 29 6.7 44
19:45 1023 30.21 853 25.19 25.7 78.3 29 6.7 44.1
19:50 1023 30.21 853 25.19 25.6 78 30 7 44.6
19:55 1023 30.21 853 25.19 25.3 77.6 31 7 44.7
20:00 1023 30.21 853 25.19 25.2 77.3 31 7 44.6
20:05 1023 30.21 853 25.19 25 77 31 7.1 44.7
20:10 1023 30.21 853 25.19 24.8 76.6 32 7 44.7
20:15 1023 30.21 853 25.19 24.6 76.2 32 7.1 44.7
20:20 1023 30.21 853 25.19 24.3 75.8 33 7.3 45.1
20:25 1023 30.21 853 25.19 24 75.2 33 7.2 44.9
20:30 1023 30.21 853 25.19 23.8 74.8 35 7.5 45.5
20:35 1023 30.21 853 25.19 23.5 74.3 35 7.3 45.1
20:40 1023 30.21 853 25.19 23.4 74.1 35 7.2 44.9
20:45 1023 30.21 853 25.19 23.2 73.8 35 7.3 45.1
20:50 1024 30.24 853 25.19 23.1 73.5 35 7 44.6
20:55 1023 30.21 853 25.19 23.1 73.5 35 6.8 44.2
21:00 1023 30.21 853 25.19 22.8 73 35 6.7 44.1
21:05 1023 30.21 853 25.19 22.6 72.7 35 6.7 44
21:10 1024 30.24 853 25.19 22.4 72.3 36 6.7 44.1
21:15 1024 30.24 853 25.19 22.3 72.2 35 6.2 43.2
21:20 1024 30.24 853 25.19 22.6 72.6 34 6.2 43.1
21:25 1024 30.24 853 25.19 22.5 72.5 35 6.3 43.3
21:30 1024 30.24 853 25.19 22.5 72.4 34 6 42.8
21:35 1024 30.24 853 25.19 22.6 72.7 34 6 42.8
21:40 1024 30.24 853 25.19 22.5 72.4 34 6.1 43
21:45 1024 30.24 853 25.19 22.4 72.2 34 6 42.7
21:50 1024 30.24 853 25.19 22.5 72.4 34 6 42.7
21:55 1024 30.24 853 25.19 22.4 72.3 34 6.1 43
22:00 1024 30.24 853 25.19 22.3 72.1 35 6.1 43.1
22:05 1024 30.24 853 25.19 22.2 71.9 35 6.2 43.1
22:10 1024 30.24 853 25.19 22.1 71.7 36 6.6 44
22:15 1024 30.24 853 25.19 21.8 71.2 37 6.7 44
22:20 1024 30.24 853 25.19 21.7 71 38 6.9 44.5
22:25 1024 30.24 853 25.19 21.5 70.7 39 7 44.7
22:30 1024 30.24 853 25.19 21.4 70.6 39 7.1 44.8
22:35 1024 30.24 853 25.19 21.3 70.4 40 7.3 45.2
22:40 1024 30.24 853 25.19 21.2 70.1 41 7.4 45.4
22:45 1024 30.24 853 25.19 21 69.9 41 7.4 45.4
22:50 1024 30.24 853 25.19 20.9 69.7 41 7.4 45.4
22:55 1023 30.21 853 25.19 21.1 70 41 7.5 45.5
23:00 1024 30.24 853 25.19 21 69.7 42 7.8 46
23:05 1024 30.24 853 25.19 20.7 69.2 42 7.6 45.6
23:10 1024 30.24 853 25.19 20.5 69 43 7.5 45.6
23:15 1024 30.24 853 25.19 20.5 68.9 43 7.6 45.7
23:20 1024 30.24 853 25.19 20.6 69 43 7.8 46.1
23:25 1024 30.24 853 25.19 20.5 68.9 43 7.8 46
23:30 1024 30.24 853 25.19 20.3 68.5 44 7.7 45.8
23:35 1024 30.24 853 25.19 20.1 68.2 44 7.7 45.9
23:40 1024 30.24 853 25.19 20 68 45 7.7 45.9
23:45 1024 30.24 853 25.19 20 68.1 44 7.7 45.8
23:50 1023 30.21 853 25.19 20.2 68.4 44 7.7 45.9
23:55 1024 30.24 853 25.19 20.3 68.5 44 7.8 46
24:00 1024 30.24 853 25.19 20.4 68.6 44 7.9 46.2